Startpagina
METAR-TAF:

METAR-TAF

Vliegvelden :

Nadi International Airport

Nadi, Fiji

breedte: 17-45S, lengte: 177-27E, hoogte: 13 m

Actueel weer

Dit bericht is 1 uur en het 6 minuten geleden gemaakt, om 06:00 UTC
Wind 7 kt uit het zuidwesten
Temperatuur 26°C
Vochtigheid 89%
Druk 1009 hPa
Zicht 10 km of meer
Verspreide wolken op 1000 ft

METAR: NFFN 230600Z 22007KT 9999 SCT010 26/24 Q1009 NOSIG

Tijdstip: 19:06 (07:06 UTC)

Verwachting

Dit bericht is 1 uur en het 56 minuten geleden gemaakt, om 05:10 UTC
Verwachting geldig van 23 om 06 UTC tot 24 om 06 UTC
Wind 7 kt uit het zuidwesten
Zicht 10 km of meer
Verspreide wolken op 2000 ft
Kans 30% :
Tijdelijke
van 24 om 02 UTC tot 24 om 06 UTC
Zicht: 5000 m
Gebroken wolken op 1800 ft
regenbuien
Wijzigt naar
van 24 om 04 UTC tot 24 om 06 UTC
Wind 3 kt uit variabele richting

TAF: NFFN 230510Z 2306/2406 23007KT 9999 SCT020 PROB30 TEMPO 2402/2406 5000 SHRA BKN018 BECMG 2404/2406 VRB03KT

Waarnemingen en weersverwachtingen van meer dan 4000 vliegvelden (METAR en TAF).

De beschikbare stations zijn de gele en rode punten op de kaart.

Ga met uw muis naar het station om de naam te zien.

Klik dan om waarnemingen en weersverwachtingen te zien.

kaart wijzigen: klik op de groene knoppen met een zwart kruis om in te zoomen, op de groene knop met een streepje om uit te zoomen of op de groene pijlen voor aangrenzende kaarten.


METAR-TAF: